Taiheimaru — JM6135 — position and weather

sailwx.info

Track history (hours):
 
Tides and Currents Weather Stations Pressure Air Temp Water Temp Dewpoint Dewpoint Depression Visibility Wind Speed Wind Dir Waves Ship Positions

Taiheimaru

Last reported at 2014-Nov-28 08:24 UTC. Time now 2014-Nov-28 18:14 UTC.
Position N 34°37' E 135°01'.

Length 78 m.

Type: Cargo ship. MMSI: 431400082.

Date/timePositionNaut miles runAvg speedWind from/ knotsBaromVisibWave heightAir tempDewpointWater temp
2014-Nov-28 08:24N 34°37' E 135°01'910.0
2014-Nov-28 07:31N 34°37' E 135°12'1010.8
2014-Nov-28 06:33N 34°37' E 135°25'3 3.0
2014-Nov-28 05:32N 34°39' E 135°21'6 4.8
2014-Nov-28 04:21N 34°40' E 135°14'0 0.1
2014-Nov-28 03:33N 34°40' E 135°14'0 0.0
2014-Nov-28 02:29N 34°40' E 135°14'1 1.3
2014-Nov-28 01:33N 34°38' E 135°15'0 0.0
2014-Nov-28 00:27N 34°38' E 135°15'0 0.0
2014-Nov-27 23:27N 34°38' E 135°15'0 0.0
2014-Nov-27 22:27N 34°38' E 135°15'1 0.7
2014-Nov-27 21:33N 34°38' E 135°15'1010.1
2014-Nov-27 20:33N 34°36' E 135°03'5 0.1
2014-Nov-26 08:21N 34°37' E 134°57'6 6.8
2014-Nov-26 07:31N 34°36' E 135°04'9 9.6
2014-Nov-26 06:32N 34°38' E 135°15'1 1.5
2014-Nov-26 05:33N 34°39' E 135°14'0 0.0
2014-Nov-26 04:31N 34°39' E 135°14'1 1.0
2014-Nov-26 03:32N 34°40' E 135°15'2 1.7
2014-Nov-26 02:30N 34°41' E 135°13'0 0.0
2014-Nov-26 01:33N 34°41' E 135°13'0 0.0
2014-Nov-26 00:33N 34°41' E 135°13'0 0.0
2014-Nov-25 23:33N 34°41' E 135°13'0 0.0
2014-Nov-25 22:27N 34°41' E 135°13'0 0.0
2014-Nov-25 21:33N 34°41' E 135°13'0 0.0
2014-Nov-25 20:27N 34°41' E 135°13'0 0.0
2014-Nov-25 19:27N 34°41' E 135°13'0 0.0
2014-Nov-25 18:27N 34°41' E 135°13'3 3.3
2014-Nov-25 17:33N 34°39' E 135°15'10 9.7
2014-Nov-25 16:33N 34°35' E 135°05'6 0.2
2014-Nov-24 08:12N 34°37' E 134°57'5 7.9
2014-Nov-24 07:31N 34°36' E 135°04'9 9.4
2014-Nov-24 06:33N 34°37' E 135°15'9 4.0
2014-Nov-24 04:25N 34°38' E 135°25'7 8.3
2014-Nov-24 03:32N 34°39' E 135°16'2 1.5
2014-Nov-24 02:30N 34°39' E 135°15'0 0.2
2014-Nov-24 01:28N 34°39' E 135°15'1 1.4
2014-Nov-24 00:24N 34°40' E 135°13'0 0.0
2014-Nov-23 23:33N 34°40' E 135°13'0 0.0
2014-Nov-23 22:27N 34°40' E 135°13'0 0.0
2014-Nov-23 21:33N 34°40' E 135°13'0 0.0
2014-Nov-23 20:30N 34°40' E 135°13'0 0.0
2014-Nov-23 19:30N 34°40' E 135°13'0 0.0
2014-Nov-23 18:30N 34°40' E 135°13'0 0.0
2014-Nov-23 17:30N 34°40' E 135°13'0 0.0
2014-Nov-23 16:30N 34°40' E 135°13'0 0.0
2014-Nov-23 15:30N 34°40' E 135°13'0 0.0
2014-Nov-23 14:24N 34°40' E 135°13'0 0.0
2014-Nov-23 13:28N 34°40' E 135°13'0 0.0
2014-Nov-23 12:33N 34°40' E 135°13'0 0.0
2014-Nov-23 11:33N 34°40' E 135°13'0 0.0
2014-Nov-23 10:30N 34°40' E 135°13'0 0.0
2014-Nov-23 09:31N 34°40' E 135°13'0 0.0
2014-Nov-23 08:31N 34°40' E 135°13'0 0.0
2014-Nov-23 07:33N 34°40' E 135°13'6 6.2
2014-Nov-23 06:33N 34°36' E 135°08'9 0.2
2014-Nov-21 10:07N 34°37' E 134°58'712.9
2014-Nov-21 09:33N 34°36' E 135°06'1211.7
2014-Nov-21 08:32N 34°39' E 135°21'4 3.5
2014-Nov-21 07:27N 34°38' E 135°25'6 6.8
2014-Nov-21 06:33N 34°39' E 135°18'3 2.4
2014-Nov-21 05:27N 34°39' E 135°15'0 0.1
2014-Nov-21 04:33N 34°39' E 135°15'3 2.6
2014-Nov-21 03:33N 34°41' E 135°13'0 0.0
2014-Nov-21 02:15N 34°41' E 135°13'0 0.1
2014-Nov-21 01:30N 34°41' E 135°13'0 0.0
2014-Nov-21 00:30N 34°41' E 135°13'0 0.1
2014-Nov-20 23:33N 34°41' E 135°13'0 0.0
2014-Nov-20 22:30N 34°41' E 135°13'0 0.0
2014-Nov-20 21:24N 34°41' E 135°13'0 0.3
2014-Nov-20 20:31N 34°41' E 135°13'6 6.1
2014-Nov-20 19:33N 34°36' E 135°09'9 0.2
2014-Nov-19 04:28N 34°37' E 134°59'8 8.8
2014-Nov-19 03:33N 34°37' E 135°08'6 5.3
2014-Nov-19 02:30N 34°40' E 135°14'0 0.0
2014-Nov-19 01:27N 34°40' E 135°14'0 0.0
2014-Nov-19 00:24N 34°40' E 135°14'1 1.1
2014-Nov-18 23:32N 34°39' E 135°15'0 0.2
2014-Nov-18 22:30N 34°39' E 135°15'0 0.0
2014-Nov-18 21:24N 34°39' E 135°15'0 0.0
2014-Nov-18 20:30N 34°39' E 135°15'0 0.0
2014-Nov-18 19:24N 34°39' E 135°15'0 0.0
2014-Nov-18 18:30N 34°39' E 135°15'0 0.0
2014-Nov-18 17:30N 34°39' E 135°15'0 0.0
2014-Nov-18 16:25N 34°39' E 135°15'3 3.9
2014-Nov-18 15:33N 34°37' E 135°11'  
Track history (hours):
 
Tides and Currents Weather Stations Pressure Air Temp Water Temp Dewpoint Dewpoint Depression Visibility Wind Speed Wind Dir Waves Ship Positions

Taiheimaru

Last reported at 2014-Nov-28 08:24 UTC. Time now 2014-Nov-28 18:14 UTC.
Position N 34°37' E 135°01'.

Length 78 m.

Type: Cargo ship. MMSI: 431400082.

Date/timePositionNaut miles runAvg speedWind from/ knotsBaromVisibWave heightAir tempDewpointWater temp
2014-Nov-28 08:24N 34°37' E 135°01'910.0
2014-Nov-28 07:31N 34°37' E 135°12'1010.8
2014-Nov-28 06:33N 34°37' E 135°25'3 3.0
2014-Nov-28 05:32N 34°39' E 135°21'6 4.8
2014-Nov-28 04:21N 34°40' E 135°14'0 0.1
2014-Nov-28 03:33N 34°40' E 135°14'0 0.0
2014-Nov-28 02:29N 34°40' E 135°14'1 1.3
2014-Nov-28 01:33N 34°38' E 135°15'0 0.0
2014-Nov-28 00:27N 34°38' E 135°15'0 0.0
2014-Nov-27 23:27N 34°38' E 135°15'0 0.0
2014-Nov-27 22:27N 34°38' E 135°15'1 0.7
2014-Nov-27 21:33N 34°38' E 135°15'1010.1
2014-Nov-27 20:33N 34°36' E 135°03'5 0.1
2014-Nov-26 08:21N 34°37' E 134°57'6 6.8
2014-Nov-26 07:31N 34°36' E 135°04'9 9.6
2014-Nov-26 06:32N 34°38' E 135°15'1 1.5
2014-Nov-26 05:33N 34°39' E 135°14'0 0.0
2014-Nov-26 04:31N 34°39' E 135°14'1 1.0
2014-Nov-26 03:32N 34°40' E 135°15'2 1.7
2014-Nov-26 02:30N 34°41' E 135°13'0 0.0
2014-Nov-26 01:33N 34°41' E 135°13'0 0.0
2014-Nov-26 00:33N 34°41' E 135°13'0 0.0
2014-Nov-25 23:33N 34°41' E 135°13'0 0.0
2014-Nov-25 22:27N 34°41' E 135°13'0 0.0
2014-Nov-25 21:33N 34°41' E 135°13'0 0.0
2014-Nov-25 20:27N 34°41' E 135°13'0 0.0
2014-Nov-25 19:27N 34°41' E 135°13'0 0.0
2014-Nov-25 18:27N 34°41' E 135°13'3 3.3
2014-Nov-25 17:33N 34°39' E 135°15'10 9.7
2014-Nov-25 16:33N 34°35' E 135°05'6 0.2
2014-Nov-24 08:12N 34°37' E 134°57'5 7.9
2014-Nov-24 07:31N 34°36' E 135°04'9 9.4
2014-Nov-24 06:33N 34°37' E 135°15'9 4.0
2014-Nov-24 04:25N 34°38' E 135°25'7 8.3
2014-Nov-24 03:32N 34°39' E 135°16'2 1.5
2014-Nov-24 02:30N 34°39' E 135°15'0 0.2
2014-Nov-24 01:28N 34°39' E 135°15'1 1.4
2014-Nov-24 00:24N 34°40' E 135°13'0 0.0
2014-Nov-23 23:33N 34°40' E 135°13'0 0.0
2014-Nov-23 22:27N 34°40' E 135°13'0 0.0
2014-Nov-23 21:33N 34°40' E 135°13'0 0.0
2014-Nov-23 20:30N 34°40' E 135°13'0 0.0
2014-Nov-23 19:30N 34°40' E 135°13'0 0.0
2014-Nov-23 18:30N 34°40' E 135°13'0 0.0
2014-Nov-23 17:30N 34°40' E 135°13'0 0.0
2014-Nov-23 16:30N 34°40' E 135°13'0 0.0
2014-Nov-23 15:30N 34°40' E 135°13'0 0.0
2014-Nov-23 14:24N 34°40' E 135°13'0 0.0
2014-Nov-23 13:28N 34°40' E 135°13'0 0.0
2014-Nov-23 12:33N 34°40' E 135°13'0 0.0
2014-Nov-23 11:33N 34°40' E 135°13'0 0.0
2014-Nov-23 10:30N 34°40' E 135°13'0 0.0
2014-Nov-23 09:31N 34°40' E 135°13'0 0.0
2014-Nov-23 08:31N 34°40' E 135°13'0 0.0
2014-Nov-23 07:33N 34°40' E 135°13'6 6.2
2014-Nov-23 06:33N 34°36' E 135°08'9 0.2
2014-Nov-21 10:07N 34°37' E 134°58'712.9
2014-Nov-21 09:33N 34°36' E 135°06'1211.7
2014-Nov-21 08:32N 34°39' E 135°21'4 3.5
2014-Nov-21 07:27N 34°38' E 135°25'6 6.8
2014-Nov-21 06:33N 34°39' E 135°18'3 2.4
2014-Nov-21 05:27N 34°39' E 135°15'0 0.1
2014-Nov-21 04:33N 34°39' E 135°15'3 2.6
2014-Nov-21 03:33N 34°41' E 135°13'0 0.0
2014-Nov-21 02:15N 34°41' E 135°13'0 0.1
2014-Nov-21 01:30N 34°41' E 135°13'0 0.0
2014-Nov-21 00:30N 34°41' E 135°13'0 0.1
2014-Nov-20 23:33N 34°41' E 135°13'0 0.0
2014-Nov-20 22:30N 34°41' E 135°13'0 0.0
2014-Nov-20 21:24N 34°41' E 135°13'0 0.3
2014-Nov-20 20:31N 34°41' E 135°13'6 6.1
2014-Nov-20 19:33N 34°36' E 135°09'9 0.2
2014-Nov-19 04:28N 34°37' E 134°59'8 8.8
2014-Nov-19 03:33N 34°37' E 135°08'6 5.3
2014-Nov-19 02:30N 34°40' E 135°14'0 0.0
2014-Nov-19 01:27N 34°40' E 135°14'0 0.0
2014-Nov-19 00:24N 34°40' E 135°14'1 1.1
2014-Nov-18 23:32N 34°39' E 135°15'0 0.2
2014-Nov-18 22:30N 34°39' E 135°15'0 0.0
2014-Nov-18 21:24N 34°39' E 135°15'0 0.0
2014-Nov-18 20:30N 34°39' E 135°15'0 0.0
2014-Nov-18 19:24N 34°39' E 135°15'0 0.0
2014-Nov-18 18:30N 34°39' E 135°15'0 0.0
2014-Nov-18 17:30N 34°39' E 135°15'0 0.0
2014-Nov-18 16:25N 34°39' E 135°15'3 3.9
2014-Nov-18 15:33N 34°37' E 135°11'  

Dump ship's entire track history